sensor_id;sensor_type;location;lat;lon;timestamp;pressure;altitude;pressure_sealevel;temperature;humidity
40650;BME280;26342;42.826;23.992;2023-02-28T00:01:05;95913.78;;;5.59;100.00
40650;BME280;26342;42.826;23.992;2023-02-28T00:03:30;95920.94;;;5.52;100.00
40650;BME280;26342;42.826;23.992;2023-02-28T00:05:55;95927.81;;;5.60;100.00
40650;BME280;26342;42.826;23.992;2023-02-28T00:08:21;95930.53;;;5.53;100.00
40650;BME280;26342;42.826;23.992;2023-02-28T00:10:46;95926.00;;;5.60;100.00
40650;BME280;26342;42.826;23.992;2023-02-28T00:13:11;95931.09;;;5.62;100.00
40650;BME280;26342;42.826;23.992;2023-02-28T00:15:38;95927.97;;;5.72;100.00
40650;BME280;26342;42.826;23.992;2023-02-28T00:18:03;95934.69;;;5.74;100.00
40650;BME280;26342;42.826;23.992;2023-02-28T00:20:29;95926.34;;;5.77;100.00
40650;BME280;26342;42.826;23.992;2023-02-28T00:22:55;95919.63;;;5.68;100.00
40650;BME280;26342;42.826;23.992;2023-02-28T00:25:24;95923.28;;;5.74;100.00
40650;BME280;26342;42.826;23.992;2023-02-28T00:27:50;95933.06;;;5.73;100.00
40650;BME280;26342;42.826;23.992;2023-02-28T00:30:21;95931.00;;;5.75;100.00
40650;BME280;26342;42.826;23.992;2023-02-28T00:32:47;95925.47;;;5.83;100.00
40650;BME280;26342;42.826;23.992;2023-02-28T00:35:13;95914.66;;;5.85;100.00
40650;BME280;26342;42.826;23.992;2023-02-28T00:37:39;95905.69;;;5.86;100.00
40650;BME280;26342;42.826;23.992;2023-02-28T00:40:05;95898.13;;;5.89;100.00
40650;BME280;26342;42.826;23.992;2023-02-28T00:42:35;95903.03;;;5.93;100.00
40650;BME280;26342;42.826;23.992;2023-02-28T00:45:01;95916.06;;;5.87;100.00
40650;BME280;26342;42.826;23.992;2023-02-28T00:47:28;95913.44;;;5.87;100.00
40650;BME280;26342;42.826;23.992;2023-02-28T00:49:54;95912.03;;;5.85;100.00
40650;BME280;26342;42.826;23.992;2023-02-28T00:52:19;95907.09;;;5.88;100.00
40650;BME280;26342;42.826;23.992;2023-02-28T00:54:44;95898.75;;;5.92;100.00
40650;BME280;26342;42.826;23.992;2023-02-28T00:57:10;95893.63;;;5.90;100.00
40650;BME280;26342;42.826;23.992;2023-02-28T00:59:35;95905.69;;;5.93;100.00
40650;BME280;26342;42.826;23.992;2023-02-28T01:02:00;95900.94;;;6.01;100.00
40650;BME280;26342;42.826;23.992;2023-02-28T01:04:26;95899.91;;;6.02;100.00
40650;BME280;26342;42.826;23.992;2023-02-28T01:06:51;95895.03;;;5.99;100.00
40650;BME280;26342;42.826;23.992;2023-02-28T01:09:17;95900.44;;;6.11;100.00
40650;BME280;26342;42.826;23.992;2023-02-28T01:11:42;95893.31;;;6.11;100.00
40650;BME280;26342;42.826;23.992;2023-02-28T01:14:12;95895.16;;;6.11;100.00
40650;BME280;26342;42.826;23.992;2023-02-28T01:16:38;95896.78;;;6.12;100.00
40650;BME280;26342;42.826;23.992;2023-02-28T01:19:04;95889.63;;;6.12;100.00
40650;BME280;26342;42.826;23.992;2023-02-28T01:21:29;95890.63;;;6.18;100.00
40650;BME280;26342;42.826;23.992;2023-02-28T01:23:56;95887.97;;;6.18;100.00
40650;BME280;26342;42.826;23.992;2023-02-28T01:26:22;95890.41;;;6.20;100.00
40650;BME280;26342;42.826;23.992;2023-02-28T01:28:49;95892.19;;;6.26;100.00
40650;BME280;26342;42.826;23.992;2023-02-28T01:31:15;95891.78;;;6.22;100.00
40650;BME280;26342;42.826;23.992;2023-02-28T01:33:41;95891.78;;;6.22;100.00
40650;BME280;26342;42.826;23.992;2023-02-28T01:36:11;95891.44;;;6.19;100.00
40650;BME280;26342;42.826;23.992;2023-02-28T01:38:37;95897.13;;;6.15;100.00
40650;BME280;26342;42.826;23.992;2023-02-28T01:41:03;95895.25;;;6.23;100.00
40650;BME280;26342;42.826;23.992;2023-02-28T01:43:30;95897.91;;;6.23;100.00
40650;BME280;26342;42.826;23.992;2023-02-28T01:45:58;95888.78;;;6.19;100.00
40650;BME280;26342;42.826;23.992;2023-02-28T01:48:41;95890.97;;;6.22;100.00
40650;BME280;26342;42.826;23.992;2023-02-28T01:51:15;95888.50;;;6.27;100.00
40650;BME280;26342;42.826;23.992;2023-02-28T01:53:46;95885.28;;;6.25;100.00
40650;BME280;26342;42.826;23.992;2023-02-28T01:56:18;95879.53;;;6.28;100.00
40650;BME280;26342;42.826;23.992;2023-02-28T01:58:47;95882.63;;;6.25;100.00
40650;BME280;26342;42.826;23.992;2023-02-28T02:01:12;95887.47;;;6.28;100.00
40650;BME280;26342;42.826;23.992;2023-02-28T02:03:48;95880.81;;;6.19;100.00
40650;BME280;26342;42.826;23.992;2023-02-28T02:06:22;95880.69;;;6.07;100.00
40650;BME280;26342;42.826;23.992;2023-02-28T02:08:48;95899.69;;;6.04;100.00
40650;BME280;26342;42.826;23.992;2023-02-28T02:11:17;95892.38;;;5.99;100.00
40650;BME280;26342;42.826;23.992;2023-02-28T02:14:28;95886.03;;;6.00;100.00
40650;BME280;26342;42.826;23.992;2023-02-28T02:28:03;95900.53;;;5.59;100.00
40650;BME280;26342;42.826;23.992;2023-02-28T02:31:32;95912.97;;;5.59;100.00
40650;BME280;26342;42.826;23.992;2023-02-28T02:36:44;95911.56;;;5.56;100.00
40650;BME280;26342;42.826;23.992;2023-02-28T02:39:34;95909.13;;;5.55;100.00
40650;BME280;26342;42.826;23.992;2023-02-28T02:42:16;95909.09;;;5.62;100.00
40650;BME280;26342;42.826;23.992;2023-02-28T02:45:09;95896.53;;;5.50;100.00
40650;BME280;26342;42.826;23.992;2023-02-28T02:47:37;95917.00;;;5.68;100.00
40650;BME280;26342;42.826;23.992;2023-02-28T02:50:07;95911.66;;;5.75;100.00
40650;BME280;26342;42.826;23.992;2023-02-28T02:52:45;95925.94;;;5.74;100.00
40650;BME280;26342;42.826;23.992;2023-02-28T02:55:13;95927.97;;;5.72;100.00
40650;BME280;26342;42.826;23.992;2023-02-28T02:57:47;95926.78;;;5.68;100.00
40650;BME280;26342;42.826;23.992;2023-02-28T03:00:17;95931.88;;;5.69;100.00
40650;BME280;26342;42.826;23.992;2023-02-28T03:02:47;95934.97;;;5.59;100.00
40650;BME280;26342;42.826;23.992;2023-02-28T03:05:24;95933.94;;;5.60;100.00
40650;BME280;26342;42.826;23.992;2023-02-28T03:07:50;95932.28;;;5.66;100.00
40650;BME280;26342;42.826;23.992;2023-02-28T03:10:31;95940.06;;;5.61;100.00
40650;BME280;26342;42.826;23.992;2023-02-28T03:13:23;95944.75;;;5.52;100.00
40650;BME280;26342;42.826;23.992;2023-02-28T03:18:53;95940.72;;;5.50;100.00
40650;BME280;26342;42.826;23.992;2023-02-28T03:24:30;95944.63;;;5.41;100.00
40650;BME280;26342;42.826;23.992;2023-02-28T03:27:10;95944.41;;;5.42;100.00
40650;BME280;26342;42.826;23.992;2023-02-28T03:29:46;95945.00;;;5.44;100.00
40650;BME280;26342;42.826;23.992;2023-02-28T03:32:18;95949.50;;;5.44;100.00
40650;BME280;26342;42.826;23.992;2023-02-28T03:35:20;95943.81;;;5.40;100.00
40650;BME280;26342;42.826;23.992;2023-02-28T03:37:48;95947.63;;;5.51;100.00
40650;BME280;26342;42.826;23.992;2023-02-28T03:40:24;95956.16;;;5.53;100.00
40650;BME280;26342;42.826;23.992;2023-02-28T03:42:55;95950.25;;;5.57;100.00
40650;BME280;26342;42.826;23.992;2023-02-28T03:45:26;95946.56;;;5.65;100.00
40650;BME280;26342;42.826;23.992;2023-02-28T03:48:16;95951.00;;;5.71;100.00
40650;BME280;26342;42.826;23.992;2023-02-28T03:50:46;95942.88;;;5.66;100.00
40650;BME280;26342;42.826;23.992;2023-02-28T03:55:58;95960.41;;;5.60;100.00
40650;BME280;26342;42.826;23.992;2023-02-28T03:58:45;95955.94;;;5.61;100.00
40650;BME280;26342;42.826;23.992;2023-02-28T04:01:20;95963.28;;;5.59;100.00
40650;BME280;26342;42.826;23.992;2023-02-28T04:03:49;95967.16;;;5.56;100.00
40650;BME280;26342;42.826;23.992;2023-02-28T04:06:18;95964.41;;;5.38;100.00
40650;BME280;26342;42.826;23.992;2023-02-28T04:08:44;95966.25;;;5.31;100.00
40650;BME280;26342;42.826;23.992;2023-02-28T04:13:44;95975.97;;;5.37;100.00
40650;BME280;26342;42.826;23.992;2023-02-28T04:16:10;95981.91;;;5.32;100.00
40650;BME280;26342;42.826;23.992;2023-02-28T04:18:40;95987.81;;;5.35;100.00
40650;BME280;26342;42.826;23.992;2023-02-28T04:21:08;95983.75;;;5.32;100.00
40650;BME280;26342;42.826;23.992;2023-02-28T04:23:34;95983.75;;;5.32;100.00
40650;BME280;26342;42.826;23.992;2023-02-28T04:25:59;95986.56;;;5.37;100.00
40650;BME280;26342;42.826;23.992;2023-02-28T04:28:25;95985.97;;;5.28;100.00
40650;BME280;26342;42.826;23.992;2023-02-28T04:30:55;95984.56;;;5.26;100.00
40650;BME280;26342;42.826;23.992;2023-02-28T04:33:21;95993.91;;;5.35;100.00
40650;BME280;26342;42.826;23.992;2023-02-28T04:35:47;95987.81;;;5.28;100.00
40650;BME280;26342;42.826;23.992;2023-02-28T04:38:12;95998.38;;;5.35;100.00
40650;BME280;26342;42.826;23.992;2023-02-28T04:40:38;95998.84;;;5.25;100.00
40650;BME280;26342;42.826;23.992;2023-02-28T04:43:03;95995.97;;;5.26;100.00
40650;BME280;26342;42.826;23.992;2023-02-28T04:45:28;95996.97;;;5.32;100.00
40650;BME280;26342;42.826;23.992;2023-02-28T04:47:57;95995.75;;;5.28;100.00
40650;BME280;26342;42.826;23.992;2023-02-28T04:50:23;95997.00;;;5.25;100.00
40650;BME280;26342;42.826;23.992;2023-02-28T04:52:48;95988.47;;;5.23;100.00
40650;BME280;26342;42.826;23.992;2023-02-28T04:55:14;95993.53;;;5.25;100.00
40650;BME280;26342;42.826;23.992;2023-02-28T04:57:39;95981.50;;;5.29;100.00
40650;BME280;26342;42.826;23.992;2023-02-28T05:00:09;95988.63;;;5.35;100.00
40650;BME280;26342;42.826;23.992;2023-02-28T05:02:37;95987.59;;;5.36;100.00
40650;BME280;26342;42.826;23.992;2023-02-28T05:05:03;95988.00;;;5.40;100.00
40650;BME280;26342;42.826;23.992;2023-02-28T05:07:28;95990.41;;;5.48;100.00
40650;BME280;26342;42.826;23.992;2023-02-28T05:09:54;95990.22;;;5.43;100.00
40650;BME280;26342;42.826;23.992;2023-02-28T05:12:19;96004.88;;;5.45;100.00
40650;BME280;26342;42.826;23.992;2023-02-28T05:14:45;95993.91;;;5.35;100.00
40650;BME280;26342;42.826;23.992;2023-02-28T05:17:10;96002.63;;;5.42;100.00
40650;BME280;26342;42.826;23.992;2023-02-28T05:19:36;95990.66;;;5.33;100.00
40650;BME280;26342;42.826;23.992;2023-02-28T05:22:01;96005.28;;;5.49;100.00
40650;BME280;26342;42.826;23.992;2023-02-28T05:24:27;96015.44;;;5.52;100.00
40650;BME280;26342;42.826;23.992;2023-02-28T05:26:54;96010.94;;;5.52;100.00
40650;BME280;26342;42.826;23.992;2023-02-28T05:29:20;96016.25;;;5.52;100.00
40650;BME280;26342;42.826;23.992;2023-02-28T05:31:45;96019.69;;;5.53;100.00
40650;BME280;26342;42.826;23.992;2023-02-28T05:34:11;96026.00;;;5.58;100.00
40650;BME280;26342;42.826;23.992;2023-02-28T05:36:38;96025.63;;;5.55;100.00
40650;BME280;26342;42.826;23.992;2023-02-28T05:39:05;96026.22;;;5.57;100.00
40650;BME280;26342;42.826;23.992;2023-02-28T05:41:31;96029.06;;;5.55;100.00
40650;BME280;26342;42.826;23.992;2023-02-28T05:43:57;96030.28;;;5.59;100.00
40650;BME280;26342;42.826;23.992;2023-02-28T05:46:23;96034.72;;;5.66;100.00
40650;BME280;26342;42.826;23.992;2023-02-28T05:48:48;96041.66;;;5.67;100.00
40650;BME280;26342;42.826;23.992;2023-02-28T05:51:13;96032.50;;;5.69;100.00
40650;BME280;26342;42.826;23.992;2023-02-28T05:53:39;96031.88;;;5.67;100.00
40650;BME280;26342;42.826;23.992;2023-02-28T05:56:04;96040.22;;;5.77;100.00
40650;BME280;26342;42.826;23.992;2023-02-28T05:58:30;96029.59;;;5.77;100.00
40650;BME280;26342;42.826;23.992;2023-02-28T06:01:00;96038.16;;;5.79;100.00
40650;BME280;26342;42.826;23.992;2023-02-28T06:03:26;96027.72;;;5.84;100.00
40650;BME280;26342;42.826;23.992;2023-02-28T06:05:52;96031.19;;;5.92;100.00
40650;BME280;26342;42.826;23.992;2023-02-28T06:08:17;96027.53;;;5.86;100.00
40650;BME280;26342;42.826;23.992;2023-02-28T06:10:43;96026.50;;;5.87;100.00
40650;BME280;26342;42.826;23.992;2023-02-28T06:13:09;96025.88;;;5.92;100.00
40650;BME280;26342;42.826;23.992;2023-02-28T06:15:34;96029.34;;;5.92;100.00
40650;BME280;26342;42.826;23.992;2023-02-28T06:18:00;96034.66;;;5.92;100.00
40650;BME280;26342;42.826;23.992;2023-02-28T06:20:26;96045.88;;;5.94;100.00
40650;BME280;26342;42.826;23.992;2023-02-28T06:22:57;96033.03;;;5.91;100.00
40650;BME280;26342;42.826;23.992;2023-02-28T06:25:27;96036.50;;;5.85;100.00
40650;BME280;26342;42.826;23.992;2023-02-28T06:27:53;96018.41;;;5.75;100.00
40650;BME280;26342;42.826;23.992;2023-02-28T06:30:19;96054.22;;;5.91;100.00
40650;BME280;26342;42.826;23.992;2023-02-28T06:32:48;96058.09;;;5.95;100.00
40650;BME280;26342;42.826;23.992;2023-02-28T06:35:14;96049.69;;;5.98;100.00
40650;BME280;26342;42.826;23.992;2023-02-28T06:37:40;96052.53;;;6.03;100.00
40650;BME280;26342;42.826;23.992;2023-02-28T06:40:05;96060.06;;;6.00;100.00
40650;BME280;26342;42.826;23.992;2023-02-28T06:42:31;96061.97;;;5.86;100.00
40650;BME280;26342;42.826;23.992;2023-02-28T06:44:57;96065.44;;;5.80;100.00
40650;BME280;26342;42.826;23.992;2023-02-28T06:47:24;96066.25;;;5.80;100.00
40650;BME280;26342;42.826;23.992;2023-02-28T06:49:49;96072.00;;;5.71;100.00
40650;BME280;26342;42.826;23.992;2023-02-28T06:52:15;96070.53;;;5.75;100.00
40650;BME280;26342;42.826;23.992;2023-02-28T06:54:41;96059.00;;;5.63;100.00
40650;BME280;26342;42.826;23.992;2023-02-28T06:57:07;96070.38;;;5.70;100.00
40650;BME280;26342;42.826;23.992;2023-02-28T06:59:32;96070.53;;;5.75;100.00
40650;BME280;26342;42.826;23.992;2023-02-28T07:01:58;96042.47;;;5.67;100.00
40650;BME280;26342;42.826;23.992;2023-02-28T07:04:23;96057.72;;;5.72;100.00
40650;BME280;26342;42.826;23.992;2023-02-28T07:06:49;96058.56;;;5.66;100.00
40650;BME280;26342;42.826;23.992;2023-02-28T07:09:14;96065.91;;;5.64;100.00
40650;BME280;26342;42.826;23.992;2023-02-28T07:11:40;96064.69;;;5.59;100.00
40650;BME280;26342;42.826;23.992;2023-02-28T07:14:06;96063.66;;;5.67;100.00
40650;BME280;26342;42.826;23.992;2023-02-28T07:16:32;96055.72;;;5.60;100.00
40650;BME280;26342;42.826;23.992;2023-02-28T07:18:58;96059.81;;;5.63;100.00
40650;BME280;26342;42.826;23.992;2023-02-28T07:21:23;96058.56;;;5.66;100.00
40650;BME280;26342;42.826;23.992;2023-02-28T07:23:49;96048.75;;;5.73;100.00
40650;BME280;26342;42.826;23.992;2023-02-28T07:26:16;96049.16;;;5.76;100.00
40650;BME280;26342;42.826;23.992;2023-02-28T07:28:43;96051.75;;;5.89;100.00
40650;BME280;26342;42.826;23.992;2023-02-28T07:31:09;96048.50;;;5.87;100.00
40650;BME280;26342;42.826;23.992;2023-02-28T07:33:36;96054.22;;;5.91;100.00
40650;BME280;26342;42.826;23.992;2023-02-28T07:36:06;96054.19;;;5.98;100.00
40650;BME280;26342;42.826;23.992;2023-02-28T07:38:36;96060.72;;;6.02;100.00
40650;BME280;26342;42.826;23.992;2023-02-28T07:41:03;96062.94;;;5.98;100.00
40650;BME280;26342;42.826;23.992;2023-02-28T07:43:33;96058.69;;;5.97;100.00
40650;BME280;26342;42.826;23.992;2023-02-28T07:46:13;96054.53;;;6.08;100.00
40650;BME280;26342;42.826;23.992;2023-02-28T07:48:40;96053.13;;;6.05;100.00
40650;BME280;26342;42.826;23.992;2023-02-28T07:51:06;96057.19;;;6.08;100.00
40650;BME280;26342;42.826;23.992;2023-02-28T07:53:32;96050.47;;;6.05;100.00
40650;BME280;26342;42.826;23.992;2023-02-28T07:55:58;96060.88;;;6.07;100.00
40650;BME280;26342;42.826;23.992;2023-02-28T07:58:25;96056.19;;;6.09;100.00
40650;BME280;26342;42.826;23.992;2023-02-28T08:00:51;96062.09;;;6.11;100.00
40650;BME280;26342;42.826;23.992;2023-02-28T08:03:20;96069.59;;;6.14;100.00
40650;BME280;26342;42.826;23.992;2023-02-28T08:05:46;96062.66;;;6.20;100.00
40650;BME280;26342;42.826;23.992;2023-02-28T08:08:13;96049.41;;;6.20;100.00
40650;BME280;26342;42.826;23.992;2023-02-28T08:10:38;96067.06;;;6.32;100.00
40650;BME280;26342;42.826;23.992;2023-02-28T08:13:04;96056.53;;;6.19;100.00
40650;BME280;26342;42.826;23.992;2023-02-28T08:15:29;96064.78;;;6.36;100.00
40650;BME280;26342;42.826;23.992;2023-02-28T08:17:55;96070.66;;;6.44;100.00
40650;BME280;26342;42.826;23.992;2023-02-28T08:20:24;96057.84;;;6.41;100.00
40650;BME280;26342;42.826;23.992;2023-02-28T08:22:49;96050.69;;;6.42;100.00
40650;BME280;26342;42.826;23.992;2023-02-28T08:25:15;96065.31;;;6.51;100.00
40650;BME280;26342;42.826;23.992;2023-02-28T08:27:40;96061.59;;;6.59;100.00
40650;BME280;26342;42.826;23.992;2023-02-28T08:30:06;96041.44;;;6.51;100.00
40650;BME280;26342;42.826;23.992;2023-02-28T08:32:33;96047.56;;;6.52;100.00
40650;BME280;26342;42.826;23.992;2023-02-28T08:34:59;96070.34;;;6.59;100.00
40650;BME280;26342;42.826;23.992;2023-02-28T08:37:25;96060.34;;;6.61;100.00
40650;BME280;26342;42.826;23.992;2023-02-28T08:39:50;96052.00;;;6.58;100.00
40650;BME280;26342;42.826;23.992;2023-02-28T08:42:16;96059.28;;;6.69;100.00
40650;BME280;26342;42.826;23.992;2023-02-28T08:44:41;96054.94;;;6.75;100.00
40650;BME280;26342;42.826;23.992;2023-02-28T08:47:07;96065.38;;;6.69;100.00
40650;BME280;26342;42.826;23.992;2023-02-28T08:49:32;96059.84;;;6.71;100.00
40650;BME280;26342;42.826;23.992;2023-02-28T08:51:57;96058.03;;;6.71;100.00
40650;BME280;26342;42.826;23.992;2023-02-28T08:54:23;96076.75;;;6.77;100.00
40650;BME280;26342;42.826;23.992;2023-02-28T08:56:49;96072.25;;;6.77;100.00
40650;BME280;26342;42.826;23.992;2023-02-28T08:59:15;96081.28;;;6.69;100.00
40650;BME280;26342;42.826;23.992;2023-02-28T09:01:41;96080.75;;;6.61;100.00
40650;BME280;26342;42.826;23.992;2023-02-28T09:04:07;96067.81;;;6.71;100.00
40650;BME280;26342;42.826;23.992;2023-02-28T09:06:34;96086.81;;;6.68;100.00
40650;BME280;26342;42.826;23.992;2023-02-28T09:08:59;96073.38;;;6.63;100.00
40650;BME280;26342;42.826;23.992;2023-02-28T09:11:26;96077.69;;;6.64;100.00
40650;BME280;26342;42.826;23.992;2023-02-28T09:13:52;96086.59;;;6.69;100.00
40650;BME280;26342;42.826;23.992;2023-02-28T09:16:17;96073.75;;;6.73;100.00
40650;BME280;26342;42.826;23.992;2023-02-28T09:18:43;96076.38;;;6.73;100.00
40650;BME280;26342;42.826;23.992;2023-02-28T09:21:12;96069.25;;;6.74;100.00
40650;BME280;26342;42.826;23.992;2023-02-28T09:23:40;96064.16;;;6.72;100.00
40650;BME280;26342;42.826;23.992;2023-02-28T09:26:06;96070.69;;;6.69;100.00
40650;BME280;26342;42.826;23.992;2023-02-28T09:28:32;96070.09;;;6.67;100.00
40650;BME280;26342;42.826;23.992;2023-02-28T09:30:58;96070.91;;;6.68;100.00
40650;BME280;26342;42.826;23.992;2023-02-28T09:33:24;96072.13;;;6.72;100.00
40650;BME280;26342;42.826;23.992;2023-02-28T09:35:56;96084.72;;;6.77;100.00
40650;BME280;26342;42.826;23.992;2023-02-28T09:38:22;96081.84;;;6.78;100.00
40650;BME280;26342;42.826;23.992;2023-02-28T09:40:52;96076.53;;;6.78;100.00
40650;BME280;26342;42.826;23.992;2023-02-28T09:43:21;96073.78;;;6.66;100.00
40650;BME280;26342;42.826;23.992;2023-02-28T09:49:00;96068.97;;;6.57;100.00
40650;BME280;26342;42.826;23.992;2023-02-28T09:51:37;96076.25;;;6.61;100.00
40650;BME280;26342;42.826;23.992;2023-02-28T09:54:13;96064.19;;;6.65;100.00
40650;BME280;26342;42.826;23.992;2023-02-28T09:57:29;96062.88;;;6.50;100.00
40650;BME280;26342;42.826;23.992;2023-02-28T09:59:48;96074.84;;;6.59;100.00
40650;BME280;26342;42.826;23.992;2023-02-28T10:05:14;96074.28;;;6.50;100.00
40650;BME280;26342;42.826;23.992;2023-02-28T10:10:44;96079.00;;;6.48;100.00
40650;BME280;26342;42.826;23.992;2023-02-28T10:15:58;96066.38;;;6.43;100.00
40650;BME280;26342;42.826;23.992;2023-02-28T10:18:30;96061.63;;;6.52;100.00
40650;BME280;26342;42.826;23.992;2023-02-28T10:21:01;96062.03;;;6.56;100.00
40650;BME280;26342;42.826;23.992;2023-02-28T10:23:35;96055.47;;;6.58;100.00
40650;BME280;26342;42.826;23.992;2023-02-28T10:26:10;96053.41;;;6.60;100.00
40650;BME280;26342;42.826;23.992;2023-02-28T10:28:36;96063.59;;;6.63;100.00
40650;BME280;26342;42.826;23.992;2023-02-28T10:31:02;96058.91;;;6.65;100.00
40650;BME280;26342;42.826;23.992;2023-02-28T10:33:33;96053.38;;;6.67;100.00
40650;BME280;26342;42.826;23.992;2023-02-28T10:36:00;96051.75;;;6.66;100.00
40650;BME280;26342;42.826;23.992;2023-02-28T10:38:33;96044.84;;;6.65;100.00
40650;BME280;26342;42.826;23.992;2023-02-28T10:41:07;96053.03;;;6.57;100.00
40650;BME280;26342;42.826;23.992;2023-02-28T10:43:33;96051.03;;;6.52;100.00
40650;BME280;26342;42.826;23.992;2023-02-28T10:48:33;96046.75;;;6.51;100.00
40650;BME280;26342;42.826;23.992;2023-02-28T10:50:59;96044.81;;;6.40;100.00
40650;BME280;26342;42.826;23.992;2023-02-28T10:53:33;96050.03;;;6.47;100.00
40650;BME280;26342;42.826;23.992;2023-02-28T10:56:03;96052.50;;;6.48;100.00
40650;BME280;26342;42.826;23.992;2023-02-28T11:01:24;96033.75;;;6.43;100.00
40650;BME280;26342;42.826;23.992;2023-02-28T11:28:02;96025.97;;;6.98;100.00
40650;BME280;26342;42.826;23.992;2023-02-28T11:30:40;96032.44;;;6.84;100.00
40650;BME280;26342;42.826;23.992;2023-02-28T11:34:10;96018.13;;;6.85;100.00
40650;BME280;26342;42.826;23.992;2023-02-28T11:36:30;96023.72;;;6.77;100.00
40650;BME280;26342;42.826;23.992;2023-02-28T11:38:59;96015.97;;;6.75;100.00
40650;BME280;26342;42.826;23.992;2023-02-28T11:44:21;96014.31;;;6.81;100.00
40650;BME280;26342;42.826;23.992;2023-02-28T11:49:43;96020.56;;;6.86;100.00
40650;BME280;26342;42.826;23.992;2023-02-28T11:58:20;96019.88;;;6.97;100.00
40650;BME280;26342;42.826;23.992;2023-02-28T12:03:49;96011.97;;;6.91;100.00
40650;BME280;26342;42.826;23.992;2023-02-28T12:11:54;96031.13;;;6.93;100.00
40650;BME280;26342;42.826;23.992;2023-02-28T12:14:25;96024.88;;;6.87;100.00
40650;BME280;26342;42.826;23.992;2023-02-28T12:20:13;96025.81;;;6.68;100.00
40650;BME280;26342;42.826;23.992;2023-02-28T12:28:46;96041.88;;;6.48;100.00
40650;BME280;26342;42.826;23.992;2023-02-28T12:31:20;96033.09;;;6.48;100.00
40650;BME280;26342;42.826;23.992;2023-02-28T12:33:59;96034.69;;;6.55;100.00
40650;BME280;26342;42.826;23.992;2023-02-28T12:36:26;96029.19;;;6.57;100.00
40650;BME280;26342;42.826;23.992;2023-02-28T12:38:55;96035.06;;;6.59;100.00
40650;BME280;26342;42.826;23.992;2023-02-28T12:41:43;96032.88;;;6.56;100.00
40650;BME280;26342;42.826;23.992;2023-02-28T12:44:34;96030.88;;;6.44;100.00
40650;BME280;26342;42.826;23.992;2023-02-28T12:47:05;96033.72;;;6.50;100.00
40650;BME280;26342;42.826;23.992;2023-02-28T12:49:40;96026.97;;;6.47;100.00
40650;BME280;26342;42.826;23.992;2023-02-28T12:52:08;96027.09;;;6.34;100.00
40650;BME280;26342;42.826;23.992;2023-02-28T12:55:40;96021.63;;;6.29;100.00
40650;BME280;26342;42.826;23.992;2023-02-28T13:08:59;96033.78;;;6.36;100.00
40650;BME280;26342;42.826;23.992;2023-02-28T13:11:50;96026.31;;;6.27;100.00
40650;BME280;26342;42.826;23.992;2023-02-28T13:19:34;96025.09;;;6.23;100.00
40650;BME280;26342;42.826;23.992;2023-02-28T13:22:01;96024.50;;;6.21;100.00
40650;BME280;26342;42.826;23.992;2023-02-28T13:24:46;96027.38;;;6.19;100.00
40650;BME280;26342;42.826;23.992;2023-02-28T13:29:42;96016.34;;;6.22;100.00
40650;BME280;26342;42.826;23.992;2023-02-28T13:34:36;96009.88;;;6.18;100.00
40650;BME280;26342;42.826;23.992;2023-02-28T13:42:35;96010.53;;;6.07;100.00
40650;BME280;26342;42.826;23.992;2023-02-28T13:47:41;96012.38;;;6.06;100.00
40650;BME280;26342;42.826;23.992;2023-02-28T13:56:10;96002.00;;;5.98;100.00
40650;BME280;26342;42.826;23.992;2023-02-28T13:58:48;96010.19;;;5.97;100.00
40650;BME280;26342;42.826;23.992;2023-02-28T14:06:50;96018.34;;;5.95;100.00
40650;BME280;26342;42.826;23.992;2023-02-28T14:09:32;96018.34;;;5.95;100.00
40650;BME280;26342;42.826;23.992;2023-02-28T14:15:02;96018.78;;;5.85;100.00
40650;BME280;26342;42.826;23.992;2023-02-28T14:17:28;96020.63;;;5.85;100.00
40650;BME280;26342;42.826;23.992;2023-02-28T14:19:54;96011.66;;;5.79;100.00
40650;BME280;26342;42.826;23.992;2023-02-28T14:22:46;96012.53;;;5.67;100.00
40650;BME280;26342;42.826;23.992;2023-02-28T14:37:02;96023.34;;;5.65;100.00
40650;BME280;26342;42.826;23.992;2023-02-28T14:39:28;96024.34;;;5.64;100.00
40650;BME280;26342;42.826;23.992;2023-02-28T14:41:58;96021.31;;;5.60;100.00
40650;BME280;26342;42.826;23.992;2023-02-28T14:44:30;96020.94;;;5.50;100.00
40650;BME280;26342;42.826;23.992;2023-02-28T14:46:58;96020.94;;;5.50;100.00
40650;BME280;26342;42.826;23.992;2023-02-28T14:49:29;96009.41;;;5.25;100.00
40650;BME280;26342;42.826;23.992;2023-02-28T14:52:24;96018.75;;;5.41;100.00
40650;BME280;26342;42.826;23.992;2023-02-28T14:54:55;96025.84;;;5.47;100.00
40650;BME280;26342;42.826;23.992;2023-02-28T14:57:32;96024.19;;;5.52;100.00
40650;BME280;26342;42.826;23.992;2023-02-28T15:02:31;96019.50;;;5.61;100.00
40650;BME280;26342;42.826;23.992;2023-02-28T15:05:01;96030.28;;;5.53;100.00
40650;BME280;26342;42.826;23.992;2023-02-28T15:07:27;96029.31;;;5.47;100.00
40650;BME280;26342;42.826;23.992;2023-02-28T15:10:22;96034.00;;;5.45;100.00
40650;BME280;26342;42.826;23.992;2023-02-28T15:12:54;96031.78;;;5.36;100.00
40650;BME280;26342;42.826;23.992;2023-02-28T15:15:22;96037.13;;;5.22;100.00
40650;BME280;26342;42.826;23.992;2023-02-28T15:17:52;96030.22;;;5.15;100.00
40650;BME280;26342;42.826;23.992;2023-02-28T15:20:20;96034.47;;;5.09;100.00
40650;BME280;26342;42.826;23.992;2023-02-28T15:22:47;96025.53;;;4.97;100.00
40650;BME280;26342;42.826;23.992;2023-02-28T15:25:18;96029.63;;;4.99;100.00
40650;BME280;26342;42.826;23.992;2023-02-28T15:27:48;96042.03;;;4.99;100.00
40650;BME280;26342;42.826;23.992;2023-02-28T15:30:17;96036.91;;;5.04;100.00
40650;BME280;26342;42.826;23.992;2023-02-28T15:32:43;96030.22;;;4.88;100.00
40650;BME280;26342;42.826;23.992;2023-02-28T15:35:26;96034.31;;;4.78;100.00
40650;BME280;26342;42.826;23.992;2023-02-28T15:37:54;96026.97;;;4.80;100.00